Time;durP1;ratioP1;P1;durP2;ratioP2;P2;SDS_P1;SDS_P2;PMS_P1;PMS_P2;Temp;Humidity;BMP_temperature;BMP_pressure;BME280_temperature;BME280_humidity;BME280_pressure;Samples;Min_cycle;Max_cycle;Signal;HPM_P1;HPM_P2
2023/05/27 00:02:25;;;;;;;9.30;2.83;;;20.30;78.30;;;;;;5071626;28;20366;-62
2023/05/27 00:04:51;;;;;;;9.50;2.38;;;20.10;76.70;;;;;;5067598;28;20496;-63
2023/05/27 00:07:17;;;;;;;10.15;3.15;;;20.10;78.20;;;;;;5072541;28;20072;-62
2023/05/27 00:09:42;;;;;;;7.60;2.30;;;20.00;78.20;;;;;;5071774;28;20052;-62
2023/05/27 00:12:08;;;;;;;9.15;2.45;;;20.10;76.20;;;;;;5071772;28;20044;-63
2023/05/27 00:14:34;;;;;;;10.20;2.97;;;;;;;;;;5071959;28;20040;-62
2023/05/27 00:17:01;;;;;;;7.68;2.67;;;20.00;78.20;;;;;;5072433;28;20056;-61
2023/05/27 00:19:29;;;;;;;8.15;2.47;;;20.00;78.20;;;;;;5071462;28;20037;-61
2023/05/27 00:21:55;;;;;;;9.90;3.17;;;20.30;74.70;;;;;;5072298;28;20127;-65
2023/05/27 00:24:21;;;;;;;7.63;2.60;;;20.00;78.20;;;;;;5073222;28;20119;-62
2023/05/27 00:26:47;;;;;;;7.68;2.40;;;20.00;77.50;;;;;;5072549;28;20406;-65
2023/05/27 00:29:13;;;;;;;9.13;2.80;;;20.00;76.70;;;;;;5071636;28;20047;-63
2023/05/27 00:31:39;;;;;;;8.82;2.85;;;20.20;77.20;;;;;;5062220;28;20053;-61
2023/05/27 00:34:05;;;;;;;7.50;2.70;;;;;;;;;;5072588;28;20053;-63
2023/05/27 00:36:31;;;;;;;8.55;2.88;;;19.90;78.20;;;;;;5072009;28;20048;-65
2023/05/27 00:38:58;;;;;;;8.65;3.17;;;20.00;78.30;;;;;;5072387;28;20045;-61
2023/05/27 00:41:24;;;;;;;7.40;2.55;;;19.90;78.30;;;;;;5070848;28;20055;-61
2023/05/27 00:43:50;;;;;;;7.85;2.55;;;19.70;78.20;;;;;;5070012;28;20406;-62
2023/05/27 00:46:16;;;;;;;7.60;2.75;;;;;;;;;;5073062;28;20566;-62
2023/05/27 00:48:42;;;;;;;7.63;2.60;;;;;;;;;;5072874;28;20080;-63
2023/05/27 00:51:08;;;;;;;9.50;3.17;;;20.00;78.30;;;;;;5064638;28;20578;-61
2023/05/27 00:53:40;;;;;;;7.93;2.80;;;19.70;78.20;;;;;;5051326;28;20127;-62
2023/05/27 00:56:07;;;;;;;8.82;2.30;;;;;;;;;;5072004;28;20048;-63
2023/05/27 00:58:33;;;;;;;6.05;2.38;;;19.70;78.20;;;;;;5071176;28;20072;-62
2023/05/27 01:00:59;;;;;;;9.00;3.20;;;20.10;78.40;;;;;;5069512;28;20044;-62
2023/05/27 01:03:28;;;;;;;10.02;2.92;;;20.00;78.30;;;;;;5069445;28;20048;-61
2023/05/27 01:05:57;;;;;;;7.65;2.60;;;19.60;78.10;;;;;;5058359;28;20045;-61
2023/05/27 01:08:30;;;;;;;8.20;2.80;;;19.90;78.40;;;;;;5071536;28;20103;-64
2023/05/27 01:10:56;;;;;;;9.90;2.95;;;19.80;78.40;;;;;;5071272;28;20040;-61
2023/05/27 01:13:43;;;;;;;7.38;2.55;;;19.90;77.90;;;;;;5073302;28;20440;-61
2023/05/27 01:16:13;;;;;;;8.95;2.78;;;19.90;78.40;;;;;;5066536;28;20041;-62
2023/05/27 01:18:46;;;;;;;9.18;2.97;;;19.80;78.30;;;;;;5065565;28;20052;-62
2023/05/27 01:21:14;;;;;;;7.70;2.47;;;19.80;75.30;;;;;;5067889;28;20128;-63
2023/05/27 01:23:44;;;;;;;6.80;2.53;;;19.90;73.70;;;;;;5057598;28;20445;-64
2023/05/27 01:26:10;;;;;;;6.43;2.40;;;19.90;78.60;;;;;;5073416;28;20383;-61
2023/05/27 01:28:36;;;;;;;10.85;2.80;;;19.70;78.30;;;;;;5071596;28;20043;-61
2023/05/27 01:31:13;;;;;;;7.45;2.72;;;19.80;78.40;;;;;;5072714;28;20044;-68
2023/05/27 01:33:40;;;;;;;9.07;2.20;;;19.80;78.40;;;;;;5088490;28;20045;-61
2023/05/27 01:36:10;;;;;;;7.82;2.92;;;20.10;78.50;;;;;;5087559;28;20478;-61
2023/05/27 01:38:36;;;;;;;5.07;2.17;;;19.90;78.40;;;;;;5067516;28;20496;-68
2023/05/27 01:41:02;;;;;;;9.05;2.90;;;19.70;78.40;;;;;;5068819;28;20048;-68
2023/05/27 01:43:27;;;;;;;6.95;2.45;;;19.90;78.50;;;;;;5071986;28;20650;-68
2023/05/27 01:45:53;;;;;;;8.15;2.67;;;;;;;;;;5070818;28;20047;-68
2023/05/27 01:48:19;;;;;;;7.25;2.70;;;20.00;78.50;;;;;;5072975;28;20044;-68
2023/05/27 01:50:45;;;;;;;9.02;2.90;;;;;;;;;;5068613;28;20045;-68
2023/05/27 01:53:12;;;;;;;7.35;2.40;;;19.90;78.50;;;;;;5070537;28;20048;-68
2023/05/27 01:55:38;;;;;;;9.40;2.45;;;19.80;78.50;;;;;;5070555;28;20778;-68
2023/05/27 01:58:04;;;;;;;14.15;2.90;;;19.80;76.60;;;;;;5070736;28;20040;-68
2023/05/27 02:00:29;;;;;;;10.10;2.60;;;20.00;78.60;;;;;;5069718;28;20037;-68
2023/05/27 02:02:55;;;;;;;9.77;3.35;;;;;;;;;;5071075;28;20040;-68
2023/05/27 02:05:21;;;;;;;10.68;2.58;;;19.90;78.50;;;;;;5069431;28;20502;-69
2023/05/27 02:07:47;;;;;;;10.27;2.67;;;;;;;;;;5071368;28;20044;-68
2023/05/27 02:10:13;;;;;;;7.43;2.42;;;19.70;78.50;;;;;;5070418;28;20043;-68
2023/05/27 02:12:39;;;;;;;7.28;2.60;;;;;;;;;;5063096;28;20049;-68
2023/05/27 02:15:06;;;;;;;6.93;2.90;;;19.80;78.50;;;;;;5070386;28;20478;-68
2023/05/27 02:17:31;;;;;;;8.80;2.78;;;20.00;78.60;;;;;;5071743;28;20052;-68
2023/05/27 02:19:57;;;;;;;7.47;2.55;;;19.70;78.60;;;;;;5071510;28;20041;-68
2023/05/27 02:22:23;;;;;;;9.07;2.80;;;19.80;78.50;;;;;;5068388;28;20071;-68
2023/05/27 02:24:48;;;;;;;6.78;2.42;;;19.80;78.60;;;;;;5065947;28;20033;-68
2023/05/27 02:27:14;;;;;;;7.70;3.00;;;19.80;78.60;;;;;;5071204;28;20056;-68
2023/05/27 02:29:40;;;;;;;9.55;2.90;;;19.90;78.00;;;;;;5071071;28;20094;-68
2023/05/27 02:32:06;;;;;;;9.20;2.50;;;19.90;78.70;;;;;;5068171;28;20067;-68
2023/05/27 02:34:36;;;;;;;8.48;2.95;;;19.90;78.70;;;;;;5071060;28;20029;-68
2023/05/27 02:37:04;;;;;;;8.13;2.25;;;19.70;78.60;;;;;;5070280;28;20394;-68
2023/05/27 02:39:30;;;;;;;8.98;3.08;;;19.90;78.80;;;;;;5071553;28;20036;-68
2023/05/27 02:41:56;;;;;;;7.40;2.75;;;;;;;;;;5065903;28;20455;-69
2023/05/27 02:44:21;;;;;;;7.43;2.90;;;19.70;78.60;;;;;;5070735;28;20049;-68
2023/05/27 02:46:47;;;;;;;8.80;2.80;;;19.80;78.70;;;;;;5075258;28;20055;-67
2023/05/27 02:49:13;;;;;;;8.23;2.63;;;20.00;78.90;;;;;;5074421;28;20048;-68
2023/05/27 02:51:39;;;;;;;10.13;3.42;;;;;;;;;;5070126;28;20051;-66
2023/05/27 02:54:05;;;;;;;7.57;3.08;;;19.70;78.80;;;;;;5071152;28;20044;-64
2023/05/27 02:56:30;;;;;;;9.60;2.80;;;19.80;78.90;;;;;;5071877;28;20382;-63
2023/05/27 02:58:57;;;;;;;8.70;2.75;;;;;;;;;;5074602;28;20058;-63
2023/05/27 03:01:22;;;;;;;9.30;2.60;;;19.80;78.90;;;;;;5074109;28;20044;-63
2023/05/27 03:03:48;;;;;;;10.98;3.25;;;19.50;78.70;;;;;;5073163;28;20567;-61
2023/05/27 03:06:14;;;;;;;9.45;2.60;;;20.00;79.00;;;;;;5065418;28;20053;-62
2023/05/27 03:08:40;;;;;;;9.90;3.50;;;20.00;79.00;;;;;;5065765;28;20056;-66
2023/05/27 03:11:06;;;;;;;10.07;2.92;;;19.50;75.60;;;;;;5075615;28;20050;-62
2023/05/27 03:13:32;;;;;;;8.70;2.60;;;;;;;;;;5073085;28;20405;-61
2023/05/27 03:15:58;;;;;;;9.10;2.80;;;19.70;78.90;;;;;;5068663;28;20098;-64
2023/05/27 03:18:24;;;;;;;7.65;2.75;;;19.80;79.00;;;;;;5063545;28;20040;-62
2023/05/27 03:20:50;;;;;;;8.80;2.83;;;19.70;78.90;;;;;;5071218;28;20860;-68
2023/05/27 03:23:16;;;;;;;9.15;2.85;;;20.00;79.10;;;;;;5069930;28;20057;-68
2023/05/27 03:25:42;;;;;;;8.38;3.10;;;;;;;;;;5074266;28;20425;-68
2023/05/27 03:28:08;;;;;;;8.60;2.65;;;19.90;79.00;;;;;;5073273;28;20044;-68
2023/05/27 03:30:35;;;;;;;7.18;2.58;;;19.80;79.00;;;;;;5063595;28;20544;-68
2023/05/27 03:33:01;;;;;;;7.43;2.80;;;19.90;79.10;;;;;;5073554;28;20053;-68
2023/05/27 03:35:27;;;;;;;8.20;2.63;;;19.80;79.10;;;;;;5072828;28;20482;-68
2023/05/27 03:37:53;;;;;;;9.38;3.10;;;;;;;;;;5073709;28;20101;-64
2023/05/27 03:40:19;;;;;;;8.82;2.90;;;19.70;79.10;;;;;;5071433;28;20071;-60
2023/05/27 03:42:45;;;;;;;8.68;2.88;;;19.80;79.10;;;;;;5072607;28;20076;-61
2023/05/27 03:45:11;;;;;;;7.53;2.70;;;20.00;79.30;;;;;;5071596;28;20053;-64
2023/05/27 03:47:37;;;;;;;8.13;2.63;;;;;;;;;;5071699;28;20057;-63
2023/05/27 03:50:03;;;;;;;8.68;2.78;;;19.90;79.20;;;;;;5064940;28;20385;-64
2023/05/27 03:52:29;;;;;;;10.07;2.80;;;;;;;;;;5070922;28;20045;-65
2023/05/27 03:54:55;;;;;;;5.90;2.45;;;;;;;;;;5072513;28;20037;-66
2023/05/27 03:57:21;;;;;;;10.52;2.90;;;20.00;79.30;;;;;;5071730;28;20071;-63
2023/05/27 03:59:47;;;;;;;7.88;2.55;;;19.60;79.00;;;;;;5072745;28;20119;-61
2023/05/27 04:02:12;;;;;;;7.35;2.42;;;20.00;79.30;;;;;;5070083;28;20053;-64
2023/05/27 04:04:38;;;;;;;7.72;2.72;;;19.90;79.20;;;;;;5072987;28;20132;-68
2023/05/27 04:07:04;;;;;;;8.52;2.53;;;;;;;;;;5072344;28;20048;-64
2023/05/27 04:09:30;;;;;;;9.05;3.00;;;20.00;79.40;;;;;;5072310;28;20072;-67
2023/05/27 04:11:56;;;;;;;8.18;2.70;;;19.80;79.30;;;;;;5066365;28;20079;-62
2023/05/27 04:14:22;;;;;;;6.82;2.45;;;19.90;79.40;;;;;;5070122;28;20105;-61
2023/05/27 04:16:48;;;;;;;8.25;3.00;;;19.80;79.30;;;;;;5073117;28;20040;-64
2023/05/27 04:19:14;;;;;;;8.90;2.33;;;19.90;79.30;;;;;;5073335;28;20047;-62
2023/05/27 04:21:40;;;;;;;9.60;3.42;;;;;;;;;;5073903;28;20064;-62
2023/05/27 04:24:06;;;;;;;8.00;2.67;;;20.10;79.50;;;;;;5068042;28;20048;-65
2023/05/27 04:26:32;;;;;;;9.35;2.65;;;20.00;79.40;;;;;;5072578;28;20051;-68
2023/05/27 04:29:01;;;;;;;6.13;2.30;;;19.90;79.40;;;;;;5073203;28;20089;-67
2023/05/27 04:31:30;;;;;;;7.15;2.47;;;;;;;;;;5072033;28;20043;-67
2023/05/27 04:33:56;;;;;;;8.05;3.03;;;19.70;79.30;;;;;;5073386;28;20055;-64
2023/05/27 04:36:24;;;;;;;8.00;2.67;;;19.80;79.30;;;;;;5069536;28;20040;-66
2023/05/27 04:38:51;;;;;;;10.35;2.78;;;20.10;75.70;;;;;;5071868;28;20098;-67
2023/05/27 04:41:19;;;;;;;8.18;2.83;;;19.80;79.30;;;;;;5071868;28;20041;-66
2023/05/27 04:43:46;;;;;;;8.48;2.60;;;;;;;;;;5087518;28;20532;-66
2023/05/27 04:46:12;;;;;;;7.82;2.33;;;19.90;79.30;;;;;;5070216;28;20044;-66
2023/05/27 04:48:38;;;;;;;7.25;3.10;;;20.10;79.40;;;;;;5065842;28;20045;-66
2023/05/27 04:51:04;;;;;;;9.00;2.63;;;20.20;79.40;;;;;;5065158;28;20101;-65
2023/05/27 04:53:30;;;;;;;7.53;2.80;;;20.50;79.50;;;;;;5072691;28;20044;-61
2023/05/27 04:55:56;;;;;;;7.75;2.50;;;;;;;;;;5071356;28;20046;-68
2023/05/27 04:58:22;;;;;;;8.88;2.95;;;20.60;79.30;;;;;;5067159;28;20066;-67
2023/05/27 05:00:53;;;;;;;8.98;2.92;;;20.60;79.00;;;;;;5072897;28;20037;-63
2023/05/27 05:03:22;;;;;;;10.35;3.40;;;20.40;78.70;;;;;;5071387;28;20041;-61
2023/05/27 05:05:51;;;;;;;11.52;3.03;;;21.00;78.80;;;;;;5071585;28;20128;-61
2023/05/27 05:08:18;;;;;;;8.18;2.83;;;21.00;78.50;;;;;;5073378;28;20135;-64
2023/05/27 05:10:46;;;;;;;6.03;2.50;;;21.20;78.30;;;;;;5073311;28;20049;-61
2023/05/27 05:13:12;;;;;;;9.05;2.72;;;;;;;;;;5071343;28;20044;-69
2023/05/27 05:15:38;;;;;;;6.25;2.92;;;21.30;77.70;;;;;;5072374;28;20119;-68
2023/05/27 05:18:04;;;;;;;7.60;2.58;;;21.60;77.60;;;;;;5070372;28;20120;-68
2023/05/27 05:20:30;;;;;;;6.80;2.78;;;21.80;77.40;;;;;;5073066;28;20521;-69
2023/05/27 05:22:56;;;;;;;10.25;2.97;;;21.80;77.20;;;;;;5072681;28;20040;-68
2023/05/27 05:25:22;;;;;;;7.80;2.47;;;22.00;77.20;;;;;;5073295;28;20374;-68
2023/05/27 05:27:47;;;;;;;6.95;2.67;;;22.10;77.10;;;;;;5072588;28;20441;-69
2023/05/27 05:30:13;;;;;;;7.82;2.83;;;22.00;76.90;;;;;;5072290;28;20094;-68
2023/05/27 05:32:39;;;;;;;7.38;2.95;;;22.10;76.90;;;;;;5071791;28;20537;-66
2023/05/27 05:35:05;;;;;;;8.68;3.33;;;22.30;76.80;;;;;;5070743;28;20044;-67
2023/05/27 05:37:31;;;;;;;8.23;2.45;;;22.20;76.60;;;;;;5072021;28;20061;-68
2023/05/27 05:39:57;;;;;;;8.30;2.63;;;22.30;76.30;;;;;;5069112;28;20037;-68
2023/05/27 05:42:24;;;;;;;9.65;3.22;;;;;;;;;;5069975;28;20048;-68
2023/05/27 05:44:53;;;;;;;8.98;3.10;;;22.60;76.20;;;;;;5070279;28;20082;-67
2023/05/27 05:47:19;;;;;;;9.32;2.70;;;;;;;;;;5070144;28;20063;-67
2023/05/27 05:49:45;;;;;;;9.25;2.92;;;22.70;76.00;;;;;;5069885;28;20128;-68
2023/05/27 05:52:11;;;;;;;6.82;2.70;;;22.80;76.00;;;;;;5071198;28;20139;-68
2023/05/27 05:54:36;;;;;;;7.65;2.78;;;22.50;75.60;;;;;;5067975;28;20043;-67
2023/05/27 05:57:02;;;;;;;8.00;2.95;;;22.80;75.80;;;;;;5070046;28;20079;-68
2023/05/27 05:59:28;;;;;;;9.38;3.10;;;22.80;75.60;;;;;;5069861;28;20704;-68
2023/05/27 06:01:54;;;;;;;7.72;2.97;;;22.60;75.20;;;;;;5071275;28;20045;-66
2023/05/27 06:04:20;;;;;;;10.18;2.83;;;22.90;75.50;;;;;;5070420;28;20040;-68
2023/05/27 06:06:46;;;;;;;8.15;2.92;;;22.80;75.40;;;;;;5070998;28;20033;-68
2023/05/27 06:09:11;;;;;;;7.25;2.88;;;22.90;75.60;;;;;;5064295;28;20037;-69
2023/05/27 06:11:37;;;;;;;8.15;3.10;;;22.80;75.50;;;;;;5068523;28;20040;-68
2023/05/27 06:14:04;;;;;;;7.03;2.67;;;;;;;;;;5069126;28;20039;-68
2023/05/27 06:16:29;;;;;;;8.27;3.05;;;22.80;73.00;;;;;;5071510;28;20498;-68
2023/05/27 06:18:55;;;;;;;8.98;3.20;;;22.60;75.50;;;;;;5068629;28;20043;-61
2023/05/27 06:21:21;;;;;;;7.35;2.90;;;22.80;75.70;;;;;;5070591;28;20582;-61
2023/05/27 06:23:47;;;;;;;11.23;3.25;;;22.70;75.60;;;;;;5070901;28;20501;-62
2023/05/27 06:26:13;;;;;;;8.57;2.85;;;22.90;75.70;;;;;;5063095;28;20079;-61
2023/05/27 06:28:39;;;;;;;7.82;3.00;;;23.00;75.60;;;;;;5070189;28;20865;-61
2023/05/27 06:31:05;;;;;;;8.43;3.15;;;22.70;75.40;;;;;;5069728;28;20127;-62
2023/05/27 06:33:30;;;;;;;9.20;2.97;;;23.00;75.50;;;;;;5064474;28;20146;-68
2023/05/27 06:35:56;;;;;;;6.72;2.60;;;23.10;75.50;;;;;;5070493;28;20496;-69
2023/05/27 06:38:23;;;;;;;8.98;3.35;;;23.20;72.30;;;;;;5066640;28;20155;-66
2023/05/27 06:40:48;;;;;;;9.40;2.80;;;23.20;75.40;;;;;;5062591;28;20128;-69
2023/05/27 06:43:14;;;;;;;8.23;2.97;;;23.40;75.40;;;;;;5066886;28;20131;-68
2023/05/27 06:45:40;;;;;;;7.85;3.20;;;23.20;75.20;;;;;;5070153;28;20051;-63
2023/05/27 06:48:07;;;;;;;10.45;3.30;;;23.50;75.40;;;;;;5066075;28;20049;-61
2023/05/27 06:50:33;;;;;;;10.07;3.10;;;23.40;75.20;;;;;;5070559;28;20048;-63
2023/05/27 06:52:59;;;;;;;8.23;3.38;;;23.20;75.00;;;;;;5070404;28;20089;-64
2023/05/27 06:55:25;;;;;;;7.47;2.50;;;23.30;75.00;;;;;;5072395;28;20433;-65
2023/05/27 06:57:51;;;;;;;10.50;3.10;;;23.40;75.00;;;;;;5072038;28;20053;-61
2023/05/27 07:00:17;;;;;;;8.18;3.10;;;23.60;75.00;;;;;;5071144;28;20049;-69
2023/05/27 07:02:42;;;;;;;8.27;3.03;;;23.40;73.60;;;;;;5070636;28;20390;-63
2023/05/27 07:05:08;;;;;;;9.05;3.30;;;23.50;72.20;;;;;;5063422;28;20044;-61
2023/05/27 07:07:34;;;;;;;7.05;2.97;;;23.60;72.20;;;;;;5071943;28;20049;-61
2023/05/27 07:10:00;;;;;;;9.35;3.35;;;23.50;75.00;;;;;;5072224;28;20040;-65
2023/05/27 07:12:26;;;;;;;9.25;3.42;;;23.20;74.90;;;;;;5059907;28;20392;-68
2023/05/27 07:14:52;;;;;;;8.02;2.97;;;;;;;;;;5062835;28;20040;-70
2023/05/27 07:17:18;;;;;;;8.23;2.80;;;23.40;75.00;;;;;;5071305;28;20143;-67
2023/05/27 07:19:43;;;;;;;8.95;3.33;;;23.40;75.10;;;;;;5070816;28;20502;-69
2023/05/27 07:22:09;;;;;;;7.70;2.83;;;23.20;72.20;;;;;;5064504;28;20052;-62
2023/05/27 07:24:35;;;;;;;9.25;3.42;;;23.30;75.00;;;;;;5061506;28;20437;-66
2023/05/27 07:27:01;;;;;;;9.10;3.42;;;23.40;75.20;;;;;;5070449;28;20131;-69
2023/05/27 07:29:27;;;;;;;9.88;3.00;;;23.50;75.10;;;;;;5068081;28;20516;-64
2023/05/27 07:31:53;;;;;;;7.90;2.95;;;23.50;75.20;;;;;;5058511;28;20048;-70
2023/05/27 07:34:20;;;;;;;7.88;3.60;;;23.50;75.20;;;;;;5072123;28;20576;-69
2023/05/27 07:36:46;;;;;;;8.85;3.08;;;23.50;75.20;;;;;;5067903;28;20048;-69
2023/05/27 07:39:12;;;;;;;8.73;3.40;;;23.50;75.20;;;;;;5068985;28;20037;-69
2023/05/27 07:41:38;;;;;;;9.98;3.45;;;23.50;75.10;;;;;;5067292;28;20405;-61
2023/05/27 07:44:03;;;;;;;10.18;2.72;;;23.70;75.20;;;;;;5069542;28;20131;-63
2023/05/27 07:46:30;;;;;;;8.00;2.83;;;23.60;75.00;;;;;;5075723;28;20120;-61
2023/05/27 07:48:55;;;;;;;9.85;3.20;;;23.70;75.00;;;;;;5073176;28;20047;-63
2023/05/27 07:51:21;;;;;;;7.13;3.28;;;23.80;75.20;;;;;;5066018;28;20029;-69
2023/05/27 07:53:48;;;;;;;12.43;4.20;;;23.90;74.90;;;;;;5066725;28;20041;-73
2023/05/27 07:56:14;;;;;;;8.93;3.65;;;23.70;74.80;;;;;;5062052;28;20041;-71
2023/05/27 07:58:40;;;;;;;14.20;4.15;;;23.70;74.60;;;;;;5058606;28;20045;-72
2023/05/27 08:01:05;;;;;;;12.50;3.60;;;23.90;74.80;;;;;;5071777;28;22047;-71
2023/05/27 08:03:31;;;;;;;14.85;3.78;;;23.80;74.70;;;;;;5069840;28;20044;-71
2023/05/27 08:05:57;;;;;;;15.45;4.40;;;23.80;74.70;;;;;;5073326;28;20033;-69
2023/05/27 08:08:22;;;;;;;13.13;4.32;;;23.80;74.70;;;;;;5073996;28;20052;-68
2023/05/27 08:10:48;;;;;;;12.23;3.90;;;23.70;74.70;;;;;;5072935;28;20099;-67
2023/05/27 08:13:14;;;;;;;13.38;3.83;;;23.90;74.60;;;;;;5070057;28;20509;-68
2023/05/27 08:15:40;;;;;;;15.90;3.90;;;23.80;74.60;;;;;;5071318;28;20045;-70
2023/05/27 08:18:05;;;;;;;9.38;3.20;;;24.00;74.60;;;;;;5072848;28;20456;-69
2023/05/27 08:20:31;;;;;;;13.07;3.92;;;23.80;74.50;;;;;;5065244;28;20422;-67
2023/05/27 08:22:57;;;;;;;14.48;3.90;;;;;;;;;;5059480;28;20044;-67
2023/05/27 08:25:23;;;;;;;10.32;3.13;;;23.80;74.60;;;;;;5063238;28;20037;-67
2023/05/27 08:27:53;;;;;;;12.23;3.55;;;24.00;74.70;;;;;;5072981;28;20445;-68
2023/05/27 08:30:19;;;;;;;12.57;4.47;;;23.90;74.50;;;;;;5057340;28;20037;-67
2023/05/27 08:32:45;;;;;;;12.82;4.60;;;23.80;74.60;;;;;;5072026;28;20051;-67
2023/05/27 08:35:11;;;;;;;11.73;3.70;;;23.80;74.50;;;;;;5071631;28;20105;-69
2023/05/27 08:37:40;;;;;;;11.95;3.97;;;24.00;73.60;;;;;;5070437;28;20044;-67
2023/05/27 08:40:10;;;;;;;11.07;3.97;;;24.00;71.90;;;;;;5071489;28;20043;-69
2023/05/27 08:42:36;;;;;;;9.93;3.38;;;24.10;74.60;;;;;;5071790;28;20048;-71
2023/05/27 08:45:02;;;;;;;9.55;3.30;;;23.80;74.40;;;;;;5071555;28;20498;-70
2023/05/27 08:47:31;;;;;;;12.15;4.07;;;23.90;74.30;;;;;;5064066;28;20046;-70
2023/05/27 08:49:58;;;;;;;10.85;3.70;;;24.00;74.40;;;;;;5072016;28;20046;-74
2023/05/27 08:52:25;;;;;;;12.73;3.58;;;24.20;71.50;;;;;;5068573;28;20048;-66
2023/05/27 08:54:52;;;;;;;11.73;3.88;;;24.20;74.30;;;;;;5069886;28;20135;-66
2023/05/27 08:57:19;;;;;;;9.77;3.28;;;23.80;74.00;;;;;;5064930;28;20048;-66
2023/05/27 08:59:45;;;;;;;14.75;4.15;;;23.90;74.10;;;;;;5072031;28;20037;-65
2023/05/27 09:02:14;;;;;;;11.70;3.78;;;24.10;74.20;;;;;;5070827;28;20486;-63
2023/05/27 09:04:40;;;;;;;14.93;4.10;;;24.10;74.20;;;;;;5067958;28;20101;-82
2023/05/27 09:07:06;;;;;;;19.27;4.45;;;23.90;73.90;;;;;;5061341;28;20447;-70
2023/05/27 09:09:32;;;;;;;14.57;4.65;;;23.80;73.60;;;;;;5069444;28;20053;-70
2023/05/27 09:12:04;;;;;;;14.82;4.93;;;23.60;73.80;;;;;;5058537;28;20040;-71
2023/05/27 09:14:30;;;;;;;16.92;3.92;;;23.90;73.80;;;;;;5070168;28;20509;-73
2023/05/27 09:16:56;;;;;;;19.48;4.80;;;23.70;73.80;;;;;;5070755;28;20040;-73
2023/05/27 09:19:22;;;;;;;14.50;4.65;;;23.90;73.80;;;;;;5071909;28;20056;-72
2023/05/27 09:21:56;;;;;;;13.95;4.28;;;23.90;73.80;;;;;;5071271;28;20108;-71
2023/05/27 09:24:23;;;;;;;13.63;4.45;;;23.80;73.80;;;;;;5071874;28;20080;-68
2023/05/27 09:26:53;;;;;;;15.20;4.57;;;23.90;69.20;;;;;;5072049;28;20110;-69
2023/05/27 09:29:25;;;;;;;14.20;4.70;;;24.00;74.00;;;;;;5070653;28;20608;-66
2023/05/27 09:31:55;;;;;;;;;;;23.70;71.30;;;;;;5071288;28;20048;-71
2023/05/27 09:34:21;;;;;;;11.93;4.38;;;23.70;74.00;;;;;;5071612;28;19924;-72
2023/05/27 09:36:50;;;;;;;16.17;4.68;;;23.80;74.10;;;;;;5071558;28;20093;-71
2023/05/27 09:39:18;;;;;;;11.45;4.32;;;23.90;74.00;;;;;;5086464;28;20055;-68
2023/05/27 09:41:44;;;;;;;11.70;4.38;;;;;;;;;;5069084;28;20109;-68
2023/05/27 09:44:10;;;;;;;17.27;5.05;;;23.70;68.80;;;;;;5071813;28;20109;-65
2023/05/27 09:46:36;;;;;;;11.80;4.53;;;23.70;70.40;;;;;;5070483;28;20032;-70
2023/05/27 09:49:03;;;;;;;14.18;4.32;;;23.50;71.50;;;;;;5070793;28;20036;-69
2023/05/27 09:51:29;;;;;;;11.38;4.20;;;23.80;73.50;;;;;;5070881;28;20043;-69
2023/05/27 09:53:56;;;;;;;13.88;4.07;;;23.80;73.40;;;;;;5064250;28;20048;-70
2023/05/27 09:56:23;;;;;;;13.30;4.65;;;23.50;73.30;;;;;;5070476;28;20398;-69
2023/05/27 09:58:49;;;;;;;13.38;4.45;;;23.80;73.50;;;;;;5070164;28;20041;-69
2023/05/27 10:01:17;;;;;;;13.85;4.88;;;23.40;73.30;;;;;;5085790;28;20375;-69
2023/05/27 10:03:44;;;;;;;17.88;4.88;;;23.70;73.40;;;;;;5056328;28;20044;-70
2023/05/27 10:06:12;;;;;;;13.75;4.88;;;23.50;73.20;;;;;;5066012;28;20127;-69
2023/05/27 10:08:38;;;;;;;15.20;4.57;;;23.40;73.20;;;;;;5054551;28;20131;-70
2023/05/27 10:11:04;;;;;;;15.88;5.07;;;23.20;73.10;;;;;;5067844;28;20123;-70
2023/05/27 10:13:30;;;;;;;12.13;4.65;;;23.40;73.50;;;;;;5071765;28;20060;-70
2023/05/27 10:15:56;;;;;;;14.40;4.57;;;23.40;73.50;;;;;;5054373;28;20062;-71
2023/05/27 10:18:23;;;;;;;12.20;4.28;;;23.50;73.20;;;;;;5052709;28;20045;-71
2023/05/27 10:20:49;;;;;;;11.95;4.65;;;23.40;73.20;;;;;;5066639;28;20059;-70
2023/05/27 10:23:16;;;;;;;14.27;4.85;;;23.40;73.40;;;;;;5068222;28;20044;-68
2023/05/27 10:25:58;;;;;;;13.25;4.82;;;23.10;73.30;;;;;;5069407;28;20046;-72
2023/05/27 10:28:35;;;;;;;13.73;4.78;;;23.10;73.30;;;;;;5070400;28;20083;-69
2023/05/27 10:31:07;;;;;;;12.57;4.00;;;23.30;73.40;;;;;;5059901;28;20118;-69
2023/05/27 10:33:37;;;;;;;12.10;4.75;;;23.40;73.50;;;;;;5067080;28;20044;-70
2023/05/27 10:36:04;;;;;;;15.88;5.25;;;23.10;73.20;;;;;;5063743;28;20055;-69
2023/05/27 10:38:30;;;;;;;14.32;4.78;;;23.00;73.20;;;;;;5069433;28;20127;-70
2023/05/27 10:41:00;;;;;;;12.18;4.43;;;23.20;73.60;;;;;;5067202;28;20434;-69
2023/05/27 10:43:27;;;;;;;17.65;5.25;;;23.20;73.80;;;;;;5069410;28;20436;-63
2023/05/27 10:46:07;;;;;;;10.52;4.35;;;23.20;73.70;;;;;;5065167;28;20394;-60
2023/05/27 10:48:33;;;;;;;12.40;4.57;;;23.20;74.00;;;;;;5063912;28;20048;-71
2023/05/27 10:50:59;;;;;;;13.85;4.65;;;23.20;72.20;;;;;;5068959;28;20140;-71
2023/05/27 10:53:28;;;;;;;11.13;4.15;;;23.30;74.40;;;;;;5070975;28;20098;-70
2023/05/27 10:55:54;;;;;;;14.43;4.10;;;23.20;74.40;;;;;;5070148;28;20512;-69
2023/05/27 10:58:20;;;;;;;12.55;4.28;;;23.40;75.20;;;;;;5071950;28;20036;-76
2023/05/27 11:00:49;;;;;;;15.10;4.68;;;23.20;74.80;;;;;;5071917;28;20040;-65
2023/05/27 11:03:28;;;;;;;8.52;4.25;;;23.40;75.00;;;;;;5061606;28;20048;-64
2023/05/27 11:06:04;;;;;;;12.45;4.22;;;23.20;75.00;;;;;;5072569;28;20096;-75
2023/05/27 11:08:31;;;;;;;12.60;4.43;;;23.40;75.10;;;;;;5075005;28;20083;-70
2023/05/27 11:11:10;;;;;;;13.52;4.93;;;23.20;75.00;;;;;;5075218;28;20502;-70
2023/05/27 11:13:43;;;;;;;11.68;4.30;;;23.40;75.20;;;;;;5073798;28;20091;-71
2023/05/27 11:16:09;;;;;;;12.05;4.38;;;;;;;;;;5074622;28;20040;-69
2023/05/27 11:18:46;;;;;;;12.95;4.60;;;23.40;75.40;;;;;;5075051;28;20048;-70
2023/05/27 11:21:12;;;;;;;16.10;4.47;;;23.50;75.50;;;;;;5072011;28;20127;-72
2023/05/27 11:23:45;;;;;;;7.88;3.40;;;23.30;75.70;;;;;;5062004;28;20044;-71
2023/05/27 11:26:21;;;;;;;10.98;4.07;;;23.20;75.70;;;;;;5074450;28;20087;-71
2023/05/27 11:28:55;;;;;;;9.57;4.00;;;23.20;76.10;;;;;;5075391;28;20052;-70
2023/05/27 11:31:31;;;;;;;12.40;4.60;;;23.50;75.70;;;;;;5072438;28;20075;-69
2023/05/27 11:33:56;;;;;;;15.90;4.38;;;23.30;75.50;;;;;;5074730;28;20076;-64
2023/05/27 11:36:25;;;;;;;11.05;4.40;;;23.40;72.70;;;;;;5074561;28;20448;-69
2023/05/27 11:38:56;;;;;;;8.73;4.18;;;23.20;75.40;;;;;;5072971;28;20044;-68
2023/05/27 11:41:26;;;;;;;13.48;3.90;;;23.30;75.60;;;;;;5075334;28;20123;-71
2023/05/27 11:43:55;;;;;;;13.60;4.50;;;23.40;75.50;;;;;;5075142;28;20044;-70
2023/05/27 11:46:21;;;;;;;15.18;4.43;;;23.50;75.50;;;;;;5073530;28;20405;-71
2023/05/27 11:48:46;;;;;;;10.95;4.13;;;23.50;75.70;;;;;;5073063;28;20040;-69
2023/05/27 11:51:12;;;;;;;10.93;4.05;;;23.40;75.80;;;;;;5074712;28;20111;-71
2023/05/27 11:53:44;;;;;;;14.25;4.78;;;23.30;75.60;;;;;;5062758;28;20531;-70
2023/05/27 11:56:10;;;;;;;14.30;4.68;;;23.40;75.60;;;;;;5068555;28;20048;-70
2023/05/27 11:58:36;;;;;;;9.75;4.25;;;23.60;75.90;;;;;;5071279;28;20470;-71
2023/05/27 12:01:03;;;;;;;19.17;5.43;;;23.60;75.90;;;;;;5089248;28;20431;-70
2023/05/27 12:03:29;;;;;;;9.88;4.30;;;23.30;75.80;;;;;;5074475;28;20057;-70
2023/05/27 12:05:55;;;;;;;11.48;4.45;;;23.60;75.70;;;;;;5072320;28;20037;-71
2023/05/27 12:08:21;;;;;;;16.67;5.00;;;23.40;75.60;;;;;;5065746;28;20052;-69
2023/05/27 12:10:50;;;;;;;13.52;4.95;;;23.50;75.70;;;;;;5068384;28;20032;-70
2023/05/27 12:13:15;;;;;;;13.70;4.50;;;23.40;72.80;;;;;;5063264;28;20505;-69
2023/05/27 12:15:41;;;;;;;12.27;4.22;;;23.40;76.20;;;;;;5054663;28;20045;-71
2023/05/27 12:18:07;;;;;;;12.02;4.88;;;23.20;75.60;;;;;;5070839;28;20040;-71
2023/05/27 12:20:33;;;;;;;13.48;4.88;;;23.20;75.60;;;;;;5073738;28;20056;-72
2023/05/27 12:22:59;;;;;;;14.52;5.32;;;23.40;75.80;;;;;;5072276;28;20478;-72
2023/05/27 12:25:25;;;;;;;15.57;4.95;;;23.10;75.60;;;;;;5069817;28;20479;-69
2023/05/27 12:27:51;;;;;;;13.75;4.65;;;23.50;75.90;;;;;;5072879;28;20048;-72
2023/05/27 12:30:16;;;;;;;11.98;4.35;;;23.60;75.80;;;;;;5073033;28;20062;-73
2023/05/27 12:32:42;;;;;;;12.90;4.85;;;23.50;72.70;;;;;;5074117;28;20044;-70
2023/05/27 12:35:08;;;;;;;12.48;4.80;;;23.40;75.70;;;;;;5061726;28;20041;-72
2023/05/27 12:37:34;;;;;;;11.60;3.90;;;23.80;76.90;;;;;;5069485;28;20044;-72
2023/05/27 12:40:00;;;;;;;12.45;4.43;;;23.60;76.10;;;;;;5072549;28;20049;-72
2023/05/27 12:42:28;;;;;;;12.77;5.15;;;23.50;73.90;;;;;;5073927;28;20048;-73
2023/05/27 12:44:54;;;;;;;13.63;4.43;;;23.40;75.90;;;;;;5073267;28;20045;-72
2023/05/27 12:47:20;;;;;;;16.67;5.00;;;23.60;76.40;;;;;;5072348;28;20063;-70
2023/05/27 12:49:46;;;;;;;21.25;4.85;;;23.60;76.20;;;;;;5067660;28;20080;-74
2023/05/27 12:52:14;;;;;;;19.35;4.70;;;23.20;75.80;;;;;;5063925;28;20071;-70